Time;durP1;ratioP1;P1;durP2;ratioP2;P2;SDS_P1;SDS_P2;PMS_P1;PMS_P2;Temp;Humidity;BMP_temperature;BMP_pressure;BME280_temperature;BME280_humidity;BME280_pressure;Samples;Min_cycle;Max_cycle;Signal;HPM_P1;HPM_P2
2021/12/14 00:01:12;;;;;;;14.07;7.43;;;;;;;-1.50;80.15;95419.38;4980342;28;20532;-87
2021/12/14 00:03:41;;;;;;;15.23;8.23;;;;;;;-0.67;80.73;95568.50;4977768;28;20054;-86
2021/12/14 00:06:09;;;;;;;14.90;7.45;;;;;;;-1.40;80.66;95443.25;5001269;28;20500;-87
2021/12/14 00:08:47;;;;;;;18.02;8.77;;;;;;;-1.17;80.59;95458.56;4979655;28;20042;-86
2021/12/14 00:11:30;;;;;;;16.55;9.00;;;;;;;-1.41;80.43;95426.03;4970555;28;20245;-87
2021/12/14 00:16:49;;;;;;;14.82;7.32;;;;;;;-0.54;79.70;95540.72;4960777;28;20074;-86
2021/12/14 00:19:17;;;;;;;15.10;8.13;;;;;;;-1.35;79.79;95421.84;4973642;28;20095;-86
2021/12/14 00:21:49;;;;;;;11.98;6.97;;;;;;;-1.63;79.25;95401.91;4975626;28;20102;-87
2021/12/14 00:24:15;;;;;;;15.13;8.27;;;;;;;-0.41;80.11;95598.09;4993761;28;20502;-87
2021/12/14 00:27:06;;;;;;;12.98;7.60;;;;;;;-1.99;80.30;95320.72;4994307;28;20102;-86
2021/12/14 00:29:54;;;;;;;14.85;8.02;;;;;;;-0.43;79.61;95563.59;4969410;28;20510;-86
2021/12/14 00:32:25;;;;;;;13.23;7.57;;;;;;;-0.30;79.39;95614.13;4979471;28;20100;-86
2021/12/14 00:34:54;;;;;;;14.27;8.10;;;;;;;-0.15;80.42;95602.56;4973046;28;20038;-86
2021/12/14 00:37:28;;;;;;;17.80;8.43;;;;;;;-1.03;79.57;95478.44;4979668;28;20047;-86
2021/12/14 00:39:55;;;;;;;12.75;7.72;;;;;;;-0.52;79.50;95563.97;4979597;28;20042;-86
2021/12/14 00:42:21;;;;;;;12.18;6.80;;;;;;;-0.59;79.68;95547.50;4992242;28;20125;-87
2021/12/14 00:44:48;;;;;;;14.70;7.53;;;;;;;-2.82;78.90;95223.72;4969148;28;20037;-87
2021/12/14 00:47:14;;;;;;;14.40;8.25;;;;;;;-4.16;79.08;94987.22;4962951;28;20034;-86
2021/12/14 00:49:39;;;;;;;13.40;8.38;;;;;;;-2.79;78.98;95205.19;4985190;28;20034;-86
2021/12/14 00:52:08;;;;;;;16.05;7.65;;;;;;;-2.75;79.37;95229.75;4998745;28;20053;-86
2021/12/14 00:54:36;;;;;;;11.50;7.00;;;;;;;-0.98;79.57;95519.50;4996570;28;20130;-86
2021/12/14 00:57:03;;;;;;;13.30;7.50;;;;;;;-1.36;79.99;95451.44;4991917;28;20031;-86
2021/12/14 00:59:31;;;;;;;14.63;8.30;;;;;;;-0.99;79.84;95478.88;4992911;28;20038;-86
2021/12/14 01:02:14;;;;;;;12.73;7.25;;;;;;;-1.02;79.72;95479.25;4994254;28;20621;-86
2021/12/14 01:04:47;;;;;;;15.80;8.15;;;;;;;-1.91;80.18;95374.34;4957951;28;20067;-89
2021/12/14 01:07:17;;;;;;;14.20;7.78;;;;;;;-1.06;80.24;95541.28;4951441;28;20062;-90
2021/12/14 01:09:46;;;;;;;12.40;7.88;;;;;;;-4.08;79.81;95044.88;4972391;28;20667;-89
2021/12/14 01:12:24;;;;;;;14.90;8.63;;;;;;;-3.02;80.57;95202.03;4955068;28;20374;-89
2021/12/14 01:15:12;;;;;;;18.05;8.38;;;;;;;-0.25;79.96;95593.53;4955127;28;20035;-90
2021/12/14 01:17:55;;;;;;;14.43;8.45;;;;;;;-2.52;79.66;95244.31;4969395;28;20042;-89
2021/12/14 01:20:21;;;;;;;16.40;8.45;;;;;;;-2.22;79.68;95274.25;4958560;28;20038;-89
2021/12/14 01:22:54;;;;;;;15.38;7.65;;;;;;;-3.57;79.74;95110.25;4970396;28;20120;-89
2021/12/14 01:25:22;;;;;;;16.20;8.95;;;;;;;-0.23;80.11;95602.72;4936898;29;20043;-90
2021/12/14 01:27:59;;;;;;;14.45;8.27;;;;;;;-0.15;80.37;95604.38;4964914;28;20070;-90
2021/12/14 01:30:32;;;;;;;14.75;7.95;;;;;;;-0.48;79.18;95560.78;4955213;28;20081;-89
2021/12/14 01:33:02;;;;;;;14.95;8.02;;;;;;;-2.60;79.54;95208.09;4954548;28;20047;-89
2021/12/14 01:35:32;;;;;;;12.32;7.47;;;;;;;-5.32;78.77;94802.16;4953905;28;20042;-89
2021/12/14 01:38:04;;;;;;;11.77;7.47;;;;;;;-1.18;79.63;95477.75;4954382;28;20046;-90
2021/12/14 01:43:56;;;;;;;15.52;8.32;;;;;;;-1.24;80.29;95447.31;4960285;28;20040;-89
2021/12/14 01:46:27;;;;;;;15.48;7.47;;;;;;;-0.06;79.91;95601.38;4935475;29;20113;-90
2021/12/14 01:48:53;;;;;;;13.10;7.28;;;;;;;-0.85;80.01;95486.53;4967898;28;20035;-89
2021/12/14 01:51:19;;;;;;;15.68;8.05;;;;;;;-0.13;79.95;95595.34;4971292;28;20057;-89
2021/12/14 01:53:48;;;;;;;13.80;8.32;;;;;;;-0.81;80.43;95503.34;4971780;28;20067;-90
2021/12/14 01:56:18;;;;;;;13.00;7.38;;;;;;;-3.08;79.57;95139.72;4960537;28;20043;-89
2021/12/14 01:58:51;;;;;;;15.93;8.90;;;;;;;-0.01;80.18;95596.41;4960595;28;20036;-89
2021/12/14 02:01:24;;;;;;;18.70;8.98;;;;;;;-0.72;79.57;95511.00;4954299;28;20031;-89
2021/12/14 02:03:58;;;;;;;16.38;8.15;;;;;;;-1.13;80.43;95496.19;4976252;28;20034;-89
2021/12/14 02:06:28;;;;;;;15.30;7.85;;;;;;;-3.74;79.64;95053.72;4987300;28;20050;-87
2021/12/14 02:08:57;;;;;;;15.27;7.65;;;;;;;-1.48;80.18;95401.78;4982024;28;20061;-87
2021/12/14 02:11:23;;;;;;;14.80;8.68;;;;;;;-0.54;81.24;95560.75;4993271;28;20098;-87
2021/12/14 02:13:53;;;;;;;12.85;7.70;;;;;;;-0.62;80.79;95538.28;4979218;28;20050;-88
2021/12/14 02:16:20;;;;;;;14.35;8.30;;;;;;;-0.15;80.74;95607.78;4969490;28;20050;-87
2021/12/14 02:18:49;;;;;;;15.50;8.13;;;;;;;-2.78;80.18;95193.00;4966035;28;20441;-88
2021/12/14 02:21:16;;;;;;;12.95;7.82;;;;;;;-0.51;81.22;95602.03;4966630;28;20047;-87
2021/12/14 02:23:48;;;;;;;14.20;8.23;;;;;;;-0.59;81.14;95560.53;4989372;28;20041;-87
2021/12/14 02:26:21;;;;;;;18.00;9.50;;;;;;;-0.71;82.19;95530.84;4975420;28;20035;-87
2021/12/14 02:28:47;;;;;;;14.02;7.75;;;;;;;-3.72;81.10;95067.28;4995392;28;20077;-88
2021/12/14 02:31:18;;;;;;;14.88;8.05;;;;;;;-0.96;82.84;95567.78;4961651;28;20035;-87
2021/12/14 02:33:45;;;;;;;;;;;;;;;-0.71;83.28;95601.97;4980549;28;20054;-87
2021/12/14 02:36:17;;;;;;;16.88;9.18;;;;;;;-3.06;83.74;95221.56;4974279;28;19957;-87
2021/12/14 02:38:45;;;;;;;19.63;9.93;;;;;;;-1.89;83.76;95382.75;4972280;28;20034;-87
2021/12/14 02:41:11;;;;;;;17.23;9.73;;;;;;;-1.01;83.40;95506.88;4968403;28;20067;-87
2021/12/14 02:43:52;;;;;;;16.70;9.75;;;;;;;-1.42;83.38;95473.03;4984205;28;20432;-88
2021/12/14 02:46:28;;;;;;;15.00;9.07;;;;;;;-0.90;83.89;95580.03;4963086;28;20049;-87
2021/12/14 02:49:00;;;;;;;12.90;8.07;;;;;;;-1.59;83.81;95473.34;4971572;28;20037;-87
2021/12/14 02:51:31;;;;;;;20.88;9.65;;;;;;;-1.57;83.70;95519.97;4981910;28;20054;-87
2021/12/14 02:54:04;;;;;;;11.33;7.73;;;;;;;-3.93;83.80;95119.94;4972039;28;20510;-87
2021/12/14 02:56:32;;;;;;;17.52;9.15;;;;;;;-1.23;83.75;95527.81;4972079;28;20873;-87
2021/12/14 02:59:03;;;;;;;14.40;8.65;;;;;;;-0.75;83.89;95592.91;4981075;28;20140;-88
2021/12/14 03:01:30;;;;;;;13.68;8.60;;;;;;;-2.36;83.81;95327.88;4964701;28;20053;-87
2021/12/14 03:04:08;;;;;;;17.45;9.10;;;;;;;-4.03;83.70;95068.41;4980052;28;20440;-87
2021/12/14 03:06:47;;;;;;;22.05;9.77;;;;;;;-0.84;84.53;95566.22;4968893;28;20055;-87
2021/12/14 03:09:34;;;;;;;17.17;9.82;;;;;;;-0.73;84.16;95595.31;4984611;28;20213;-88
2021/12/14 03:12:05;;;;;;;15.05;9.40;;;;;;;-0.57;84.23;95615.84;4975326;28;20034;-87
2021/12/14 03:14:31;;;;;;;13.95;8.85;;;;;;;-0.94;84.35;95583.22;4972362;28;20069;-87
2021/12/14 03:16:57;;;;;;;16.08;8.98;;;;;;;-3.14;84.02;95243.28;4995436;28;20029;-87
2021/12/14 03:19:22;;;;;;;14.05;8.60;;;;;;;-2.72;83.89;95335.81;4988382;28;20084;-87
2021/12/14 03:21:49;;;;;;;14.60;8.63;;;;;;;-0.92;84.38;95556.00;4963551;28;21217;-87
2021/12/14 03:24:18;;;;;;;13.93;8.85;;;;;;;-1.14;84.20;95515.41;4964136;28;20407;-87
2021/12/14 03:26:47;;;;;;;16.48;9.02;;;;;;;-0.96;83.22;95554.75;4965630;28;20034;-87
2021/12/14 03:29:25;;;;;;;16.42;9.93;;;;;;;-0.64;83.15;95587.16;4968570;28;20042;-87
2021/12/14 03:31:55;;;;;;;14.18;8.90;;;;;;;-0.93;83.00;95550.97;4972360;28;20490;-88
2021/12/14 03:34:28;;;;;;;15.43;9.10;;;;;;;-1.33;84.05;95500.50;4970750;28;20038;-87
2021/12/14 03:37:19;;;;;;;14.68;9.25;;;;;;;-0.43;84.21;95617.50;4967999;28;20042;-87
2021/12/14 03:39:58;;;;;;;16.92;9.55;;;;;;;-0.86;83.51;95546.59;4974967;28;20260;-88
2021/12/14 03:42:35;;;;;;;16.85;10.18;;;;;;;-2.43;83.47;95355.63;4985813;28;20497;-87
2021/12/14 03:45:04;;;;;;;17.17;9.10;;;;;;;-0.55;83.84;95621.69;4996285;28;20142;-86
2021/12/14 03:47:36;;;;;;;13.75;8.55;;;;;;;-3.13;82.99;95242.25;4971282;28;20430;-88
2021/12/14 03:50:12;;;;;;;17.83;10.05;;;;;;;-2.46;83.66;95345.63;4988849;28;20078;-88
2021/12/14 03:52:40;;;;;;;15.88;9.73;;;;;;;-1.61;83.86;95482.34;4971527;28;20046;-87
2021/12/14 03:55:34;;;;;;;17.17;9.40;;;;;;;-0.94;83.82;95591.84;4985780;28;20436;-88
2021/12/14 03:58:00;;;;;;;19.73;10.77;;;;;;;-1.02;83.90;95601.59;4969625;28;20073;-87
2021/12/14 04:00:32;;;;;;;21.00;10.55;;;;;;;-1.20;84.19;95581.25;4968743;28;20600;-88
2021/12/14 04:03:03;;;;;;;18.38;10.90;;;;;;;-0.59;84.89;95659.50;4961359;28;20046;-87
2021/12/14 04:05:29;;;;;;;18.17;10.77;;;;;;;-0.50;84.43;95637.53;4968044;28;20514;-87
2021/12/14 04:07:55;;;;;;;22.98;11.88;;;;;;;-1.18;84.24;95550.63;4964338;28;20435;-88
2021/12/14 04:10:26;;;;;;;21.23;11.23;;;;;;;-1.35;83.97;95554.53;4958252;28;20039;-88
2021/12/14 04:12:52;;;;;;;;;;;;;;;-0.59;85.00;95638.69;4963530;28;20578;-88
2021/12/14 04:15:19;;;;;;;20.13;11.75;;;;;;;-3.95;84.81;95158.16;4967984;28;20013;-87
2021/12/14 04:17:45;;;;;;;23.52;11.93;;;;;;;-1.73;85.67;95491.66;4968026;28;20066;-87
2021/12/14 04:20:17;;;;;;;22.88;12.10;;;;;;;-3.68;85.71;95180.75;4961599;28;20043;-87
2021/12/14 04:22:48;;;;;;;20.75;11.95;;;;;;;-1.17;85.58;95586.88;4975034;28;20042;-87
2021/12/14 04:25:19;;;;;;;19.67;11.20;;;;;;;-0.66;85.31;95658.69;4973054;28;20062;-89
2021/12/14 04:27:46;;;;;;;20.50;12.07;;;;;;;-0.75;85.78;95652.81;4959955;28;20054;-88
2021/12/14 04:30:15;;;;;;;23.35;12.73;;;;;;;-1.11;85.92;95605.31;4962868;28;20035;-87
2021/12/14 04:32:44;;;;;;;22.30;12.07;;;;;;;-3.21;85.79;95291.69;4958331;28;20057;-87
2021/12/14 04:35:10;;;;;;;26.40;11.75;;;;;;;-0.67;85.92;95650.06;4973481;28;20050;-86
2021/12/14 04:37:41;;;;;;;21.23;12.40;;;;;;;-0.73;85.51;95627.38;4967117;28;20466;-88
2021/12/14 04:40:20;;;;;;;28.05;14.10;;;;;;;-1.57;85.44;95499.16;4936388;29;20047;-86
2021/12/14 04:51:57;;;;;;;26.77;14.20;;;;;;;-2.03;85.95;95442.44;4970938;28;20114;-87
2021/12/14 04:53:55;;;;;;;34.47;14.15;;;;;;;-3.50;86.24;95227.78;4965945;28;20081;-86
2021/12/14 04:56:42;;;;;;;25.65;13.98;;;;;;;-1.89;86.10;95490.13;4944987;29;20039;-87
2021/12/14 04:59:20;;;;;;;27.33;14.63;;;;;;;-0.61;86.36;95653.72;4962391;28;20043;-87
2021/12/14 05:01:47;;;;;;;32.05;15.18;;;;;;;-1.64;86.71;95558.94;4977211;28;20045;-87
2021/12/14 05:04:18;;;;;;;26.45;14.68;;;;;;;-1.47;87.12;95574.25;4973223;28;20030;-87
2021/12/14 05:06:51;;;;;;;26.83;15.30;;;;;;;-0.63;86.68;95655.69;4981378;28;20048;-87
2021/12/14 05:09:22;;;;;;;31.65;14.98;;;;;;;-1.10;86.18;95575.72;4963053;28;20035;-87
2021/12/14 05:12:11;;;;;;;24.48;14.68;;;;;;;-0.52;85.84;95663.75;4972078;28;20042;-87
2021/12/14 05:14:40;;;;;;;26.73;14.73;;;;;;;-1.13;85.92;95571.69;4971788;28;20038;-87
2021/12/14 05:17:14;;;;;;;25.85;14.73;;;;;;;-1.68;86.22;95513.47;4989878;28;20316;-87
2021/12/14 05:19:44;;;;;;;31.85;15.52;;;;;;;-1.10;86.71;95631.19;4979370;28;20042;-87
2021/12/14 05:22:22;;;;;;;30.55;15.38;;;;;;;-1.05;86.69;95622.78;4969639;28;20046;-86
2021/12/14 05:25:01;;;;;;;30.45;16.40;;;;;;;-1.75;86.30;95517.03;4975919;28;20542;-87
2021/12/14 05:27:33;;;;;;;30.50;15.95;;;;;;;-4.00;86.21;95144.97;4961700;28;20035;-87
2021/12/14 05:30:18;;;;;;;28.27;14.52;;;;;;;-6.31;85.78;94818.34;4974773;28;20049;-87
2021/12/14 05:32:52;;;;;;;28.15;15.55;;;;;;;-2.84;85.81;95303.59;4978930;28;20105;-87
2021/12/14 05:35:19;;;;;;;26.02;15.07;;;;;;;-2.42;85.62;95364.22;4990927;28;20065;-87
2021/12/14 05:37:52;;;;;;;30.05;15.82;;;;;;;-4.23;85.32;95132.19;4968037;28;20302;-87
2021/12/14 05:40:42;;;;;;;37.50;16.45;;;;;;;-5.66;85.87;94915.69;4967652;28;20473;-87
2021/12/14 05:43:29;;;;;;;29.40;16.00;;;;;;;-2.12;85.46;95404.59;4958699;28;20030;-90
2021/12/14 05:46:05;;;;;;;26.70;14.80;;;;;;;-2.44;85.21;95379.97;4972646;28;20054;-88
2021/12/14 05:48:34;;;;;;;24.75;14.23;;;;;;;-5.93;84.89;94901.66;4957845;28;20805;-87
2021/12/14 05:51:04;;;;;;;30.35;15.95;;;;;;;-5.61;85.36;94921.91;4958800;28;20038;-89
2021/12/14 05:53:44;;;;;;;26.98;14.95;;;;;;;-4.63;86.17;95164.56;4960098;28;20039;-89
2021/12/14 05:56:15;;;;;;;35.22;15.98;;;;;;;-0.74;86.50;95690.09;4980506;28;20108;-88
2021/12/14 05:58:41;;;;;;;27.65;16.00;;;;;;;-1.11;86.42;95621.75;4975007;28;20125;-87
2021/12/14 06:01:10;;;;;;;31.92;14.70;;;;;;;-1.22;85.77;95630.09;4969791;28;20041;-87
2021/12/14 06:03:41;;;;;;;35.33;16.60;;;;;;;-3.50;85.46;95265.84;4988069;28;21556;-87
2021/12/14 06:06:21;;;;;;;;;;;;;;;-0.58;86.06;95703.63;4971738;28;20715;-87
2021/12/14 06:08:47;;;;;;;24.65;14.40;;;;;;;-1.62;85.68;95556.97;4974583;28;20291;-87
2021/12/14 06:11:21;;;;;;;30.27;15.05;;;;;;;-0.64;86.17;95708.78;4973431;28;20064;-88
2021/12/14 06:13:47;;;;;;;32.30;15.98;;;;;;;-1.40;86.20;95578.53;4966771;28;20042;-86
2021/12/14 06:16:36;;;;;;;32.00;16.33;;;;;;;-0.49;85.66;95701.66;4983822;28;20042;-86
2021/12/14 06:19:35;;;;;;;33.70;16.08;;;;;;;-0.38;85.22;95701.09;4968697;28;20052;-85
2021/12/14 06:22:13;;;;;;;28.65;15.43;;;;;;;-1.39;85.08;95564.53;4969467;28;20309;-85
2021/12/14 06:24:45;;;;;;;36.45;14.70;;;;;;;-2.70;84.82;95345.22;4984480;28;20053;-85
2021/12/14 06:27:14;;;;;;;30.80;14.25;;;;;;;-2.65;84.76;95350.63;4965784;28;20454;-86
2021/12/14 06:29:43;;;;;;;31.08;14.52;;;;;;;-3.22;84.78;95278.91;4971468;28;20189;-86
2021/12/14 06:32:21;;;;;;;30.30;15.65;;;;;;;-1.48;84.65;95583.06;4971099;28;20133;-86
2021/12/14 06:34:50;;;;;;;27.20;14.32;;;;;;;-5.76;84.34;94913.38;4969053;28;20485;-86
2021/12/14 06:40:02;;;;;;;28.92;14.07;;;;;;;-0.54;84.73;95723.09;4991651;28;20056;-86
2021/12/14 06:42:29;;;;;;;29.83;14.52;;;;;;;-2.25;84.72;95479.03;4975615;28;20058;-85
2021/12/14 06:45:24;;;;;;;29.60;14.90;;;;;;;-3.23;84.27;95292.84;4988926;28;20589;-87
2021/12/14 06:47:54;;;;;;;32.30;14.18;;;;;;;-2.70;84.27;95387.56;4984688;28;20572;-86
2021/12/14 06:50:26;;;;;;;29.45;14.35;;;;;;;-5.59;84.52;94934.66;4968669;28;20767;-85
2021/12/14 06:53:05;;;;;;;26.02;15.30;;;;;;;-5.73;84.06;94925.94;4963876;28;20058;-87
2021/12/14 06:55:33;;;;;;;26.48;14.25;;;;;;;-2.76;84.19;95383.94;4984876;28;20234;-86
2021/12/14 06:58:25;;;;;;;33.63;16.23;;;;;;;-3.70;84.47;95257.88;4967925;28;20046;-86
2021/12/14 07:01:03;;;;;;;34.00;15.13;;;;;;;-6.31;84.33;94813.19;4983053;28;20043;-87
2021/12/14 07:03:45;;;;;;;29.58;14.80;;;;;;;-2.83;85.14;95372.69;4961098;28;20092;-87
2021/12/14 07:06:38;;;;;;;29.02;16.35;;;;;;;-3.01;85.41;95374.09;4960305;28;20050;-85
2021/12/14 07:09:17;;;;;;;37.80;16.73;;;;;;;-0.46;85.58;95724.75;4967200;28;20612;-87
2021/12/14 07:12:05;;;;;;;24.80;13.88;;;;;;;-2.90;85.12;95366.59;4975545;28;20073;-87
2021/12/14 07:14:36;;;;;;;32.97;15.63;;;;;;;-0.41;86.10;95751.84;4965536;28;20583;-87
2021/12/14 07:17:28;;;;;;;35.92;14.82;;;;;;;-1.00;85.73;95662.09;4951317;28;20178;-86
2021/12/14 07:19:55;;;;;;;35.72;15.90;;;;;;;-0.49;86.57;95756.38;4962116;28;20308;-87
2021/12/14 07:22:33;;;;;;;30.55;15.90;;;;;;;-0.50;86.87;95771.22;4986325;28;20063;-87
2021/12/14 07:25:15;;;;;;;43.20;17.77;;;;;;;-0.43;86.37;95755.63;4971952;28;20037;-87
2021/12/14 07:28:01;;;;;;;47.15;20.42;;;;;;;-0.76;86.60;95669.44;4999538;28;20030;-87
2021/12/14 07:30:36;;;;;;;37.60;17.05;;;;;;;-0.99;86.35;95648.84;4969785;28;20067;-88
2021/12/14 07:33:22;;;;;;;34.92;16.08;;;;;;;-0.33;86.16;95753.47;4989505;28;20034;-87
2021/12/14 07:35:59;;;;;;;35.47;17.50;;;;;;;-0.34;86.36;95764.91;4979954;28;20034;-87
2021/12/14 07:38:50;;;;;;;41.70;17.65;;;;;;;-3.28;85.99;95344.50;4972911;28;20049;-87
2021/12/14 07:41:45;;;;;;;24.75;12.73;;;;;;;-1.63;86.30;95554.53;4974474;28;20038;-87
2021/12/14 07:44:32;;;;;;;37.80;18.58;;;;;;;-5.62;85.79;94966.81;4970634;28;20050;-87
2021/12/14 07:47:04;;;;;;;37.75;18.05;;;;;;;-0.41;86.56;95771.88;4969923;28;20038;-88
2021/12/14 07:49:56;;;;;;;36.38;19.00;;;;;;;-0.38;86.53;95764.47;4963960;28;20049;-87
2021/12/14 07:52:38;;;;;;;36.63;17.75;;;;;;;-0.95;86.40;95683.13;4965415;28;20042;-88
2021/12/14 07:55:30;;;;;;;41.28;19.23;;;;;;;-0.18;87.08;95769.81;4957840;28;20054;-88
2021/12/14 07:57:57;;;;;;;35.97;17.92;;;;;;;-0.59;86.29;95698.59;4962903;28;20057;-88
2021/12/14 08:00:26;;;;;;;37.53;19.30;;;;;;;-0.38;86.16;95716.75;4985685;28;20046;-88
2021/12/14 08:02:55;;;;;;;40.58;20.33;;;;;;;-0.08;86.07;95783.28;4982500;28;20049;-87
2021/12/14 08:05:34;;;;;;;44.10;21.33;;;;;;;-0.57;85.91;95671.38;4999939;28;20080;-88
2021/12/14 08:08:18;;;;;;;48.92;23.15;;;;;;;-0.49;85.99;95715.50;4975249;28;20053;-88
2021/12/14 08:10:57;;;;;;;39.83;22.13;;;;;;;-0.85;86.42;95666.19;4965359;28;20148;-88
2021/12/14 08:13:24;;;;;;;46.00;23.05;;;;;;;0.05;86.07;95787.78;4968278;28;20556;-88
2021/12/14 08:15:54;;;;;;;48.53;22.27;;;;;;;-0.26;86.19;95736.06;4970358;28;20048;-87
2021/12/14 08:18:25;;;;;;;53.50;23.05;;;;;;;0.18;86.09;95792.25;4968298;28;20038;-88
2021/12/14 08:20:58;;;;;;;41.60;22.43;;;;;;;-0.14;86.03;95747.56;4982036;28;20072;-89
2021/12/14 08:23:30;;;;;;;57.45;22.08;;;;;;;-0.09;85.78;95753.03;4965373;28;20429;-88
2021/12/14 08:26:09;;;;;;;38.47;20.08;;;;;;;-0.70;85.77;95658.28;4981149;28;20030;-89
2021/12/14 08:28:50;;;;;;;38.75;18.80;;;;;;;-0.46;85.11;95676.00;4964524;28;20054;-88
2021/12/14 08:31:17;;;;;;;39.80;20.92;;;;;;;-0.02;84.71;95734.78;4965475;28;20598;-88
2021/12/14 08:33:45;;;;;;;41.70;19.15;;;;;;;-0.30;84.58;95677.50;4992490;28;20232;-87
2021/12/14 08:36:14;;;;;;;42.53;19.45;;;;;;;0.47;85.26;95793.75;4966850;28;20345;-89
2021/12/14 08:38:40;;;;;;;37.67;19.63;;;;;;;0.43;84.76;95789.94;4968513;28;20116;-86
2021/12/14 08:41:18;;;;;;;43.85;22.70;;;;;;;0.62;84.49;95794.41;4967116;28;20102;-89
2021/12/14 08:43:52;;;;;;;43.38;22.10;;;;;;;-0.07;85.80;95713.69;4967358;28;20110;-90
2021/12/14 08:46:28;;;;;;;41.67;19.75;;;;;;;-5.13;84.27;94924.84;4966717;28;20038;-90
2021/12/14 08:49:05;;;;;;;46.75;20.67;;;;;;;-1.39;85.29;95537.69;4985568;28;20038;-90
2021/12/14 08:51:40;;;;;;;48.55;22.77;;;;;;;0.49;85.03;95774.31;4982950;28;20038;-89
2021/12/14 08:54:16;;;;;;;42.60;21.17;;;;;;;0.54;85.19;95782.34;4961747;28;20056;-89
2021/12/14 08:56:59;;;;;;;49.25;23.35;;;;;;;0.48;85.04;95783.13;4966029;28;20046;-89
2021/12/14 08:59:34;;;;;;;53.63;22.92;;;;;;;0.08;85.09;95731.84;4967836;28;20034;-90
2021/12/14 09:02:03;;;;;;;43.20;21.80;;;;;;;0.48;84.96;95771.88;4968850;28;20074;-90
2021/12/14 09:04:35;;;;;;;43.38;22.13;;;;;;;-1.30;84.72;95523.56;4970042;28;20490;-88
2021/12/14 09:07:09;;;;;;;43.22;21.25;;;;;;;-1.62;84.36;95441.72;4973571;28;20165;-88
2021/12/14 09:09:44;;;;;;;44.47;22.80;;;;;;;-3.24;85.50;95201.28;4969362;28;20050;-89
2021/12/14 09:12:33;;;;;;;52.85;24.63;;;;;;;-1.20;85.15;95479.75;4962112;28;20038;-89
2021/12/14 09:15:11;;;;;;;48.55;23.13;;;;;;;0.54;85.20;95765.88;4958905;28;20035;-89
2021/12/14 09:17:55;;;;;;;48.93;24.18;;;;;;;-0.52;84.98;95567.38;2911824;28;10003374;-90
2021/12/14 09:20:30;;;;;;;49.70;24.42;;;;;;;0.26;85.11;95711.22;2913102;28;10001415;-89
2021/12/14 09:23:01;;;;;;;49.80;25.73;;;;;;;0.73;84.82;95757.31;4974475;28;20121;-89
2021/12/14 09:25:29;;;;;;;50.65;25.33;;;;;;;0.41;85.22;95721.50;4972011;28;20564;-90
2021/12/14 09:28:02;;;;;;;49.92;26.27;;;;;;;-1.56;85.13;95420.16;4967796;28;20085;-89
2021/12/14 09:30:32;;;;;;;44.22;23.92;;;;;;;-1.32;84.90;95479.50;4975915;28;20104;-88
2021/12/14 09:32:58;;;;;;;43.70;23.67;;;;;;;-3.57;84.79;95143.16;4968018;28;20046;-88
2021/12/14 09:35:31;;;;;;;45.08;25.52;;;;;;;-5.35;85.01;94853.41;4968357;28;20050;-89
2021/12/14 09:37:59;;;;;;;49.33;24.65;;;;;;;-1.44;85.51;95430.78;4983452;28;20374;-90
2021/12/14 09:40:31;;;;;;;47.30;24.05;;;;;;;-2.98;84.53;95236.19;4971136;28;20129;-88
2021/12/14 09:42:58;;;;;;;43.55;23.58;;;;;;;-0.38;85.31;95600.28;4961206;28;20322;-90
2021/12/14 09:45:40;;;;;;;45.50;23.55;;;;;;;-2.09;84.88;95356.66;4976723;28;20486;-89
2021/12/14 09:48:05;;;;;;;46.20;24.40;;;;;;;-5.07;84.74;94859.44;4980438;28;20046;-90
2021/12/14 09:50:36;;;;;;;45.67;23.40;;;;;;;-4.80;85.10;94936.28;4968458;28;20038;-90
2021/12/14 09:53:08;;;;;;;49.85;24.45;;;;;;;-5.24;85.26;94892.50;4975767;28;20050;-90
2021/12/14 09:55:41;;;;;;;46.00;24.88;;;;;;;-5.03;85.24;94914.22;4985533;28;20046;-91
2021/12/14 09:58:32;;;;;;;52.90;26.05;;;;;;;0.54;86.27;95727.53;4989637;28;20047;-90
2021/12/14 10:01:10;;;;;;;47.50;24.63;;;;;;;0.54;85.15;95730.16;4951631;28;20042;-89
2021/12/14 10:03:37;;;;;;;58.22;29.20;;;;;;;-0.67;85.62;95603.16;4976332;28;20038;-90
2021/12/14 10:06:07;;;;;;;50.83;26.70;;;;;;;-3.48;85.26;95186.09;4986938;28;20133;-89
2021/12/14 10:08:43;;;;;;;50.90;26.55;;;;;;;-1.58;85.12;95409.13;4988241;28;20422;-89
2021/12/14 10:11:35;;;;;;;53.83;28.17;;;;;;;-4.91;84.93;94936.00;4992077;28;20046;-89
2021/12/14 10:14:03;;;;;;;57.33;29.92;;;;;;;-1.83;85.03;95366.41;4973811;28;20061;-88
2021/12/14 10:16:28;;;;;;;59.58;32.35;;;;;;;-0.19;84.74;95582.31;4992424;28;20908;-89
2021/12/14 10:19:03;;;;;;;60.63;31.60;;;;;;;0.96;84.85;95736.03;4977425;28;20039;-89
2021/12/14 10:21:37;;;;;;;59.05;31.38;;;;;;;-1.22;83.70;95450.53;4973195;28;20133;-89
2021/12/14 10:24:06;;;;;;;59.40;32.72;;;;;;;-1.66;84.26;95349.47;4975205;28;20079;-89
2021/12/14 10:26:40;;;;;;;60.17;32.28;;;;;;;-1.18;84.62;95478.56;4988214;28;20504;-91
2021/12/14 10:29:06;;;;;;;53.95;29.80;;;;;;;-0.27;85.32;95590.31;4975783;28;20070;-88
2021/12/14 10:31:41;;;;;;;51.75;27.65;;;;;;;-0.80;85.17;95549.22;4973348;28;20541;-91
2021/12/14 10:34:28;;;;;;;51.60;28.55;;;;;;;0.39;85.70;95725.09;4978126;28;20050;-88
2021/12/14 10:43:22;;;;;;;47.60;25.25;;;;;;;0.31;85.73;95703.59;4992239;28;20069;-90
2021/12/14 10:46:15;;;;;;;61.45;27.95;;;;;;;0.66;86.18;95719.94;4982081;28;20034;-90
2021/12/14 10:48:50;;;;;;;55.70;27.10;;;;;;;0.68;86.42;95772.78;4980831;28;20038;-90
2021/12/14 10:51:21;;;;;;;53.28;28.10;;;;;;;-2.37;85.40;95230.22;4994876;28;20136;-89
2021/12/14 10:53:53;;;;;;;57.30;29.10;;;;;;;0.69;85.04;95793.44;4966827;28;20050;-90
2021/12/14 10:56:26;;;;;;;58.40;28.63;;;;;;;-4.65;84.54;94901.81;4990531;28;20814;-90
2021/12/14 10:58:59;;;;;;;60.47;29.95;;;;;;;-0.95;84.90;95482.66;4979481;28;20100;-91
2021/12/14 11:01:34;;;;;;;55.10;28.80;;;;;;;-3.46;84.60;95038.94;4976246;28;20034;-89
2021/12/14 11:04:11;;;;;;;62.65;27.63;;;;;;;-2.35;84.73;95207.41;4993182;28;20038;-88
2021/12/14 11:06:44;;;;;;;65.35;27.15;;;;;;;-4.62;84.62;94897.06;4977061;28;20057;-88
2021/12/14 11:10:04;;;;;;;53.60;26.38;;;;;;;-4.48;84.47;94870.28;4979799;28;20057;-89
2021/12/14 11:12:38;;;;;;;50.65;26.00;;;;;;;0.79;84.54;95709.50;4982130;28;20233;-89
2021/12/14 11:15:26;;;;;;;45.70;24.27;;;;;;;-4.80;84.28;94886.34;4961927;28;20156;-87
2021/12/14 11:18:11;;;;;;;57.65;28.35;;;;;;;-3.52;84.44;95086.38;4965513;28;20042;-85
2021/12/14 11:21:00;;;;;;;61.92;29.55;;;;;;;0.42;85.48;95674.31;4990893;28;20072;-85
2021/12/14 11:23:37;;;;;;;54.45;29.90;;;;;;;0.74;85.56;95699.69;4964891;28;20437;-85
2021/12/14 11:26:23;;;;;;;55.08;28.88;;;;;;;-2.51;84.58;95186.16;4965136;28;20285;-83
2021/12/14 11:29:13;;;;;;;58.58;29.65;;;;;;;-4.70;85.23;94843.66;4970461;28;20244;-82
2021/12/14 11:31:51;;;;;;;66.63;32.17;;;;;;;-1.27;85.35;95406.88;4960216;28;20173;-84
2021/12/14 11:34:35;;;;;;;63.92;32.85;;;;;;;-0.29;85.95;95538.38;4950740;28;20127;-81
2021/12/14 11:37:14;;;;;;;57.33;29.50;;;;;;;-0.64;85.86;95508.22;4953360;28;20042;-82
2021/12/14 11:39:44;;;;;;;56.20;29.33;;;;;;;-3.08;85.00;95074.88;4958012;28;20033;-81
2021/12/14 11:42:13;;;;;;;47.57;24.77;;;;;;;-1.01;85.09;95385.34;4949116;28;20687;-81
2021/12/14 11:44:47;;;;;;;47.38;24.40;;;;;;;-1.83;84.51;95291.78;4958764;28;20316;-81
2021/12/14 11:50:04;;;;;;;47.83;23.38;;;;;;;0.80;84.87;95692.84;4973728;28;20053;-81
2021/12/14 11:52:50;;;;;;;47.58;23.35;;;;;;;0.74;85.48;95693.66;4972094;28;20433;-81
2021/12/14 11:55:53;;;;;;;42.85;20.27;;;;;;;0.68;85.06;95689.22;4974098;28;20041;-81
2021/12/14 11:58:30;;;;;;;42.28;21.33;;;;;;;0.47;84.67;95658.06;4970507;28;20137;-81
2021/12/14 12:00:59;;;;;;;45.67;22.83;;;;;;;0.60;85.17;95682.41;4968159;28;20284;-81
2021/12/14 12:03:44;;;;;;;47.20;25.38;;;;;;;-0.30;85.05;95539.38;4972376;28;20038;-80
2021/12/14 12:06:32;;;;;;;43.83;22.70;;;;;;;0.45;85.28;95688.78;4976035;28;20046;-80
2021/12/14 12:11:45;;;;;;;48.63;24.15;;;;;;;-0.68;85.84;95513.00;4974418;28;20049;-80
2021/12/14 12:14:41;;;;;;;44.33;24.80;;;;;;;0.10;85.35;95635.94;4978096;28;20042;-80
2021/12/14 12:17:25;;;;;;;49.63;25.48;;;;;;;0.41;85.46;95653.66;4975605;28;20061;-81
2021/12/14 12:20:03;;;;;;;42.78;22.05;;;;;;;-0.18;85.04;95571.69;4975320;28;20367;-80
2021/12/14 12:22:39;;;;;;;44.47;24.13;;;;;;;0.69;86.13;95682.97;4972383;28;20453;-81
2021/12/14 12:25:14;;;;;;;50.67;24.55;;;;;;;0.45;85.23;95652.25;4975216;28;20061;-81